x

8413320 - Bar Harbor, Me (atgm1) Weather Station

7:18 - Tue 3rd May 2016 All times are EDT. -4 hours from GMT.

  • Wind
    10mph, 14mph gusts
  • Sea Temp 43°f
  • Ar Temp 42°f
  • Sea Pressure 1011.2mb
  • 8413320 - Bar Harbor, Me
  • 8413320 - Bar Harbor, Me

More Historic Weather Station data

Upgrade to MSW Pro to gain access to the past 30 days of data for over 8000 Wavebouys and Weather Stations around the globe.

Join Pro

Comparision Forecast

View Surf forecast
   
Ter 05/03 7:18 10 14 mph 1011.2mb 43f 42f
7:12 11 13 mph 1011.1mb 43f 42f
7:06 11 14 mph 1011mb 43f 42f
7:00 13 15 mph 1011mb 43f 42f
6:54 11 14 mph 1011.2mb 43f 42f
6:48 11 14 mph 1011.1mb 43f 42f
6:42 13 14 mph 1011.2mb 43f 42f
6:36 11 13 mph 1011.1mb 43f 42f
6:30 10 13 mph 1011.1mb 43f 42f
6:24 11 13 mph 1010.9mb 43f 42f
6:18 11 13 mph 1010.9mb 43f 42f
6:12 11 14 mph 1010.9mb 43f 42f
6:06 11 13 mph 1010.6mb 44f 42f
6:00 11 13 mph 1010.3mb 43f 42f
5:54 13 15 mph 1010.1mb 43f 42f
5:48 11 15 mph 1009.9mb 43f 42f
5:42 13 15 mph 1009.7mb 43f 42f
5:36 11 15 mph 1009.7mb 43f 42f
5:30 13 18 mph 1009.7mb 43f 42f
5:24 13 14 mph 1009.6mb 43f 42f
5:18 11 14 mph 1009.4mb 43f 42f
5:12 11 14 mph 1009.5mb 43f 43f
5:06 10 13 mph 1009.5mb 43f 43f
5:00 10 14 mph 1009.5mb 43f 43f
4:54 10 14 mph 1009.8mb 43f 43f
4:48 10 11 mph 1009.7mb 43f 43f
4:42 9 11 mph 1009.6mb 43f 43f
4:36 9 13 mph 1009.7mb 43f 43f
4:30 11 14 mph 1009.9mb 43f 43f
4:24 10 13 mph 1010mb 43f 43f
4:18 9 13 mph 1009.9mb 43f 43f
4:12 9 13 mph 1009.9mb 43f 43f
4:06 9 13 mph 1010mb 43f 43f
4:00 9 11 mph 1009.9mb 43f 43f
3:54 8 13 mph 1009.9mb 43f 43f
3:48 8 13 mph 1009.9mb 43f 43f
3:42 9 13 mph 1009.8mb 44f 43f
3:36 10 14 mph 1009.7mb 44f 43f
3:30 10 13 mph 1009.6mb 44f 42f
3:24 10 13 mph 1009.9mb 44f 42f
3:18 10 13 mph 1010.1mb 44f 43f
3:12 9 13 mph 1009.8mb 44f 43f
3:06 10 13 mph 1009.8mb 44f 43f
3:00 8 11 mph 1010mb 44f 42f
2:54 8 10 mph 1010.1mb 44f 42f
2:48 8 10 mph 1010mb 44f 42f
2:42 8 9 mph 1009.9mb 44f 42f
2:36 8 9 mph 1009.9mb 44f 42f
2:30 7 8 mph 1010.1mb 44f 42f
2:24 6 8 mph 1010mb 44f 42f
2:18 6 8 mph 1010mb 44f 42f
2:12 6 7 mph 1010.1mb 44f 42f
2:06 5 7 mph 1010.1mb 44f 42f
2:00 6 9 mph 1009.9mb 44f 42f
1:54 5 8 mph 1009.6mb 44f 42f
1:48 6 9 mph 1009.7mb 44f 42f
1:42 7 11 mph 1009.8mb 44f 42f
1:36 6 8 mph 1010mb 44f 42f
1:30 7 11 mph 1009.9mb 44f 42f
1:24 6 8 mph 1010mb 44f 42f
1:18 6 13 mph 1010.3mb 44f 42f
1:12 5 10 mph 1010mb 44f 42f
1:06 6 10 mph 1010.2mb 44f 42f
1:00 7 8 mph 1010.2mb 44f 42f
12:54 7 10 mph 1010.4mb 44f 42f
12:48 6 10 mph 1010.4mb 44f 42f
12:42 7 10 mph 1010.2mb 44f 42f
12:36 9 13 mph 1010.4mb 44f 42f
12:30 7 11 mph 1010.3mb 44f 42f
12:24 10 13 mph 1010.3mb 44f 42f
12:18 5 7 mph 1010.5mb 44f 42f
12:12 7 14 mph 1010.4mb 44f 42f
12:06 13 16 mph 1010.3mb 44f 42f
12:00 8 13 mph 1010.3mb 44f 42f
Seg 05/02 11:54 13 16 mph 1010.3mb 44f 42f
11:48 13 15 mph 1010.3mb 44f 42f
11:42 13 17 mph 1010.2mb 44f 43f
11:36 11 13 mph 1010.2mb 44f 43f
11:30 7 11 mph 1010.4mb 44f 43f
11:24 8 11 mph 1010.3mb 44f 43f
11:18 6 10 mph 1010.3mb 44f 43f
11:12 5 7 mph 1010.3mb 44f 43f
11:06 6
mph
1010.4mb 44f 43f
11:00 6
mph
1010.4mb 44f 43f
10:54 5 6 mph 1010.6mb 44f 43f
10:48  -  mph 1010.3mb 44f -
10:42  -  mph 1010.4mb 44f -
10:36  -  mph 1010.3mb 44f -
10:30 6 8 mph 1010.2mb 44f -
10:24 6 8 mph 1010.2mb 44f -
10:18  -  mph 1009.8mb 44f 43f
10:12  -  mph 1009.7mb 44f 43f
10:06  -  mph 1010.1mb 44f 43f
10:00  -  mph 1010.5mb 44f 43f
9:54  -  mph 1010.7mb 44f 43f
9:48 8 13 mph 1010.8mb 44f -
9:42 6 8 mph 1010.9mb 44f -
9:36 8 13 mph 1011.1mb 44f -
9:30 6 9 mph 1011.1mb 44f -
9:24 6 14 mph 1010.9mb 44f -
9:18  -  mph 1010.9mb 44f 43f
9:12  -  mph 1011.2mb 44f 43f
9:06  -  mph 1011.5mb 44f 43f
9:00  -  mph 1011.7mb 44f 43f
8:54  -  mph 1011.5mb 44f 43f
8:48 13 15 mph 1011.6mb 44f -
8:42 13 15 mph 1011.6mb 44f -
8:36 11 14 mph 1012mb 44f -
8:30 10 16 mph 1012.3mb 44f 43f
8:24 9 13 mph 1012.4mb 44f 42f
8:18  -  mph 1012.6mb 44f 43f
8:12  -  mph 1012.6mb 44f 43f
8:06  -  mph 1012.9mb 44f 43f
8:00  -  mph 1012.9mb 44f 42f
7:54  -  mph 1013.1mb 44f 42f
7:48  -  mph 1013.1mb - -
7:42  -  mph 1013mb - -
7:36  -  mph 1012.9mb - -
7:30  -  mph - 44f -
7:24  -  mph - 44f -
7:18 11 16 mph 1013mb 43f -
7:12 14 16 mph 1013mb 43f -
7:06 14 18 mph 1013mb 43f -
7:00 11 14 mph 1012.9mb 43f 43f
6:54 6 8 mph 1012.9mb 43f 44f
6:48  -  mph 1012.8mb - -
6:42  -  mph 1012.4mb - -
6:36  -  mph 1012.2mb - -
6:30  -  mph 1012.3mb 43f -
6:24  -  mph 1012.2mb 43f -
6:18  -  mph 1012.1mb 43f 43f
6:12  -  mph 1012.3mb 43f 43f
6:06  -  mph 1012.4mb 43f 43f
6:00  -  mph 1012.5mb 44f 43f
5:54  -  mph 1012.5mb 44f 43f
5:48  -  mph 1012.5mb 44f -
5:42  -  mph 1012.9mb 44f -
5:36  -  mph 1013.2mb 44f -
5:30 14 16 mph 1013.4mb 44f 44f
5:24 11 20 mph 1013.2mb 44f 44f
5:18 16 21 mph 1013.1mb 44f 44f
5:12 17 22 mph 1013mb 44f 44f
5:06 18 21 mph 1013.2mb 44f 44f
5:00 17 20 mph 1013.6mb 44f 44f
4:54 15 20 mph 1013.7mb 44f 44f
4:48 16 21 mph 1013.8mb 44f 44f
4:42 16 20 mph 1014.1mb 44f 44f
4:36 17 21 mph 1014.1mb 44f 44f
4:30 15 18 mph 1014.2mb 44f 44f
4:24 15 17 mph 1014.3mb 44f 44f
4:18 14 17 mph 1014.6mb 44f 44f
4:12 15 18 mph 1014.8mb 44f 44f
4:06 14 16 mph 1014.9mb 44f 44f
4:00 13 16 mph 1015.2mb 44f 43f
3:54 14 16 mph 1015.3mb 44f 43f
3:48 15 17 mph 1015.4mb 44f 44f
3:42 14 17 mph 1015.5mb 44f 44f
3:36 16 20 mph 1015.6mb 44f 44f
3:30 16 20 mph 1015.7mb 44f 43f
3:24 16 20 mph 1015.9mb 44f 44f
3:18 15 18 mph 1016mb 44f 44f
3:12 14 21 mph 1016.1mb 44f 44f
3:06 17 20 mph 1016.2mb 44f 44f
3:00 15 20 mph 1016.3mb 44f 44f
2:54 14 21 mph 1016.6mb 44f 44f
2:48 16 21 mph 1016.6mb 44f 44f
2:42 16 22 mph 1016.7mb 44f 44f
2:36 18 23 mph 1016.8mb 44f 45f
2:30 16 22 mph 1016.9mb 44f 45f
2:24 22 26 mph 1017mb 44f 45f
2:18 18 24 mph 1016.9mb 44f 46f
2:12 18 21 mph 1017mb 44f 46f
2:06 16 22 mph 1017mb 44f 45f
2:00 17 20 mph 1017.1mb 44f 45f
1:54 17 21 mph 1017.1mb 44f 45f
1:48 20 22 mph 1017.3mb 44f 46f
1:42 16 22 mph 1017.4mb 44f 46f
1:36 14 16 mph 1017.4mb 44f 45f
1:30 14 20 mph 1017.4mb 44f 45f
1:24 17 22 mph 1017.5mb 44f 45f
1:18 16 23 mph 1017.5mb 44f 45f
1:12 18 22 mph 1017.5mb 44f 45f
1:06 17 21 mph 1017.5mb 44f 45f
1:00 17 22 mph 1017.5mb 44f 45f
12:54 17 22 mph 1017.6mb 44f 45f
12:48 15 18 mph 1017.7mb 44f 45f
12:42 15 17 mph 1017.7mb 44f 45f
12:36 16 21 mph 1017.9mb 44f 45f
12:30 15 21 mph 1018mb 44f 45f
12:24 16 20 mph 1018.2mb 44f 45f
12:18 15 18 mph 1018.3mb 44f 46f
12:12 10 16 mph 1018.4mb 44f 45f
12:06 7 9 mph 1018.6mb 44f 45f
12:00 6 11 mph 1018.6mb 44f 45f
11:54 7 10 mph 1018.9mb 44f 45f
11:48 6 11 mph 1018.9mb 44f 45f
11:42 9 14 mph 1018.8mb 44f 45f
11:36 11 16 mph 1018.8mb 44f 45f
11:30 11 16 mph 1018.8mb 44f 45f
11:24 11 16 mph 1018.8mb 44f 45f
11:18 11 15 mph 1018.9mb 44f 45f
11:12 10 15 mph 1018.9mb 44f 44f
11:06 11 15 mph 1019mb 44f 44f
11:00 13 16 mph 1018.9mb 44f 45f
10:54 11 16 mph 1019mb 44f 44f
10:48 11 15 mph 1019mb 44f 44f
10:42 11 15 mph 1019.2mb 44f 44f
10:36 10 13 mph 1019.4mb 44f 44f
10:30 8 11 mph 1019.7mb 44f 44f
10:24 8 10 mph 1019.8mb 44f 44f
10:18 7 11 mph 1020mb 44f 45f
10:12 9 13 mph 1019.9mb 44f 45f
10:06 9 14 mph 1019.7mb 44f 44f
10:00 11 14 mph 1019.6mb 44f 45f
9:54 10 13 mph 1019.8mb 44f 44f
9:48 8 10 mph 1019.9mb 44f -
9:42 9 10 mph 1020mb 44f -
9:36 8 9 mph 1020mb 44f -
9:30 7 10 mph 1020.1mb 44f 44f
9:24 8 11 mph 1020.1mb 44f 44f
9:18 8 11 mph 1019.9mb 44f 44f
9:12 9 13 mph 1019.9mb 44f 44f
9:06 9 10 mph 1020mb 44f 44f
9:00 8 11 mph 1019.9mb 44f 44f
8:54 8 10 mph 1019.9mb 44f 44f
8:48 8 10 mph 1019.9mb 44f 44f
8:42 9 11 mph 1019.8mb 44f 44f
8:36 8 9 mph 1020mb 44f 45f
8:30 8 11 mph 1020mb 44f 44f
8:24 9 10 mph 1020mb 44f 44f
8:18 8 9 mph 1020mb 44f 44f
8:12 7 8 mph 1020.3mb 44f 44f
8:06 6 9 mph 1020.3mb 44f 44f
8:00 9 10 mph 1020.2mb 44f 44f
7:54 8 11 mph 1020.2mb 44f 44f
7:48 9 13 mph 1020.2mb 44f 44f
7:42 10 14 mph 1020.1mb 44f 44f
7:36 10 13 mph 1020.1mb 44f 44f
7:30 9 13 mph 1020.1mb 44f 44f
7:24 7 11 mph 1020.3mb 44f 44f
7:18 10 13 mph 1020.1mb 44f 44f
7:12 8
mph
1020mb 44f 44f
7:06 7 8 mph 1020mb 43f 44f
7:00 6 7 mph 1020.1mb 43f 44f
6:54 7 9 mph 1020.2mb 43f 44f
6:48 6 8 mph 1020.2mb 44f 44f
6:42 5 6 mph 1020.1mb 44f 44f
6:36 5 6 mph 1020.1mb 44f 44f
6:30 6
mph
1020.3mb 44f 44f
6:24 5 6 mph 1020.4mb 44f 44f
6:18 1 3 mph 1020.5mb 44f 44f
6:12 2
mph
1020.6mb 44f 44f
6:06 2
mph
1020.5mb 43f 44f
6:00 2 3 mph 1020.5mb 43f 44f
5:54 2 3 mph 1020.7mb 43f 45f
5:48  -  5 mph 1020.7mb 43f 44f
5:42 2 5 mph 1020.7mb 43f 45f
5:36 5 6 mph 1020.6mb 43f 45f
5:30 6 8 mph 1020.4mb 44f 45f
5:24 7 10 mph 1020.3mb 44f 45f
5:18 9 11 mph 1020.3mb 44f 45f
5:12 7 9 mph 1020.3mb 44f 44f
5:06 5 6 mph 1020.5mb 43f 44f
5:00 3 5 mph 1020.6mb 44f 43f
4:54 2 5 mph 1020.8mb 44f 44f
4:48 2 7 mph 1020.8mb 43f 44f
4:42 5 6 mph 1020.9mb 43f 44f
4:36 5 6 mph 1020.8mb 43f 44f
4:30 5 6 mph 1020.7mb 43f 44f
4:24 5 6 mph 1020.8mb 43f 44f
4:18 5 6 mph 1020.8mb 43f 43f
4:12 5
mph
1020.7mb 44f 43f
4:06 2 5 mph 1020.7mb 44f 43f
4:00 3 5 mph 1020.6mb 44f 43f
3:54 5 7 mph 1020.6mb 44f 43f
3:48 5 7 mph 1020.5mb 44f 43f
3:42 5 6 mph 1020.6mb 44f 43f
3:36 5 7 mph 1020.6mb 44f 43f
3:30 6 7 mph 1020.6mb 44f 43f
3:24 6 8 mph 1020.7mb 44f 43f
3:18 6 7 mph 1020.8mb 44f 43f
3:12 6 7 mph 1020.9mb 44f 44f
3:06 3 6 mph 1021mb 44f 44f
3:00 3 6 mph 1021.1mb 44f 44f
2:54 3 5 mph 1021mb 44f 44f
2:48 6 7 mph 1021mb - -
2:42 2 5 mph 1021.1mb - -
2:36 3 5 mph 1021.3mb - -
2:30 2 5 mph 1021.3mb 43f 44f
2:24 5 6 mph 1021.2mb 43f 44f
2:18 6
mph
1021.1mb 44f 43f
2:12 5 6 mph 1021.2mb 44f 44f
2:06 5 6 mph 1021mb 44f 44f
2:00 6
mph
1021mb 44f 44f
1:54 6 7 mph 1021mb 44f 44f
1:48 6
mph
- - -
1:42 3 6 mph - - -
1:36  -  3 mph - - -
1:30 2 3 mph 1021.1mb 44f 45f
1:24 3 5 mph 1021.3mb 44f 45f
1:18  -  3 mph 1021.4mb 44f 45f
1:12 5 8 mph 1021.5mb 44f 45f
1:06 5 8 mph 1021.4mb 44f 45f
1:00 6 7 mph 1021.2mb 44f 45f
12:54 3 5 mph 1021.1mb 44f 45f
12:48 1 3 mph 1021mb 44f 44f
12:42 2 5 mph 1020.9mb 44f 44f
12:36 3 7 mph 1020.9mb 44f 44f
12:30 7 8 mph 1020.9mb 44f 44f
12:24 5 6 mph 1021.2mb 44f 44f
12:18 2 5 mph 1021.2mb 44f 44f
12:12 2 5 mph 1021mb 44f 44f
12:06 2 3 mph 1021.1mb 44f 44f
12:00 3 5 mph 1021mb 44f 44f
Dom 05/01 11:54 2 3 mph 1021mb 44f 44f
11:48  -  1 mph 1021mb 44f 44f
11:42  -  2 mph 1021mb 44f 44f
11:36 1 2 mph 1021mb 44f 44f
11:30  -  2 mph 1021.1mb 44f 44f
11:24 1 2 mph 1021.2mb 44f 44f
11:18 2 3 mph 1021.2mb 44f 44f
11:12 2 5 mph 1021.2mb 44f 44f
11:06 5
mph
1021.4mb 44f 44f
11:00  -  mph 1021.4mb 44f 45f
10:54  -  mph 1021.6mb 44f 47f
10:48  -  mph 1021.7mb 44f -
10:42  -  mph 1021.9mb 44f -
10:36  -  mph 1021.9mb 44f -
10:30  -  mph 1022mb 44f -
10:24  -  mph 1022mb 44f -
10:18  -  mph 1022.2mb 44f -
10:12  -  mph 1022.1mb 44f -
10:06  -  mph 1022mb 44f -
10:00 1 2 mph 1022mb 44f 45f
9:54  -  1 mph 1022.1mb 44f 44f
9:48  -  mph 1022.2mb 44f -
9:42  -  mph 1022.1mb 44f -
9:36  -  mph 1022.1mb 44f -
9:30  -  mph - 44f -
9:24  -  mph - 44f -
9:18 1 3 mph 1022.2mb 44f 45f
9:12 3 5 mph 1022.2mb 44f 45f
9:06 2 3 mph 1022.3mb 44f 45f
9:00  -  mph 1022.4mb 44f 46f
8:54  -  mph 1022.5mb 44f 46f
8:48  -  mph 1022.6mb 44f -
8:42  -  mph 1022.6mb 44f -
8:36  -  mph 1022.7mb 44f -
8:30 5 6 mph 1022.5mb 44f -
8:24 2 3 mph 1022.4mb 44f -
8:18  -  mph - 44f -
8:12  -  mph - 44f -
8:06  -  mph - 44f -
8:00  -  mph - 45f -
7:54  -  mph - 45f -
7:48  -  mph - 45f -
7:42  -  mph - 45f -
7:36  -  mph - 45f -
7:30 3 6 mph 1022.5mb 44f 49f
7:24 3 5 mph 1022.6mb 44f 48f
7:18 5 6 mph 1022.6mb 43f -
7:12 5 6 mph 1022.6mb 43f -
7:06 5
mph
1022.7mb 43f -
7:00  -  mph 1022.7mb 44f 48f
6:54  -  mph 1022.7mb 44f 48f
6:48  -  mph 1022.8mb 44f 49f
6:42  -  mph 1022.8mb 44f 49f
6:36  -  mph 1022.7mb 44f 49f
6:30  -  mph 1022.8mb 43f 49f
6:24  -  mph 1022.9mb 43f 49f
6:18 5 8 mph 1023mb 43f -
6:12 3 6 mph 1023mb 43f -
6:06 5 8 mph 1022.9mb 43f -
6:00 6 8 mph 1022.9mb 43f 49f
5:54 7 9 mph 1022.9mb 43f 50f
5:48  -  mph 1022.9mb 43f -
5:42  -  mph 1023mb 43f -
5:36  -  mph 1023mb 43f -
5:30 6 10 mph 1023mb 43f 49f
5:24 6 8 mph 1023mb 43f 49f
5:18 7 10 mph 1023mb 43f 49f
5:12 7 9 mph 1023mb 43f 49f
5:06 3 6 mph 1023.1mb 43f 50f
5:00 7 11 mph 1023.2mb 43f 50f
4:54 6 7 mph 1023.3mb 43f 50f
4:48 6 9 mph 1023.3mb 43f 51f
4:42 7 14 mph 1023.2mb 43f 50f
4:36 7 11 mph 1023.2mb 43f 50f
4:30 5 10 mph 1023.4mb 43f 51f
4:24 6 8 mph 1023.3mb 44f 51f
4:18 7 14 mph 1023.3mb 43f 51f
4:12 8 14 mph 1023.3mb 44f 51f
4:06 8 10 mph 1023.3mb 44f 51f
4:00 6 14 mph 1023.4mb 44f 52f
3:54 9 14 mph 1023.4mb 44f 52f
3:48 7 11 mph 1023.4mb 44f 53f
3:42 3 11 mph 1023.5mb 44f 53f
3:36 8 11 mph 1023.4mb 44f 53f
3:30 9 11 mph 1023.4mb 44f 53f
3:24 8 10 mph 1023.4mb 44f 53f
3:18 6 10 mph 1023.4mb 44f 53f
3:12 5 9 mph 1023.4mb 44f 54f
3:06 5 8 mph 1023.5mb 44f 54f
3:00 6 11 mph 1023.6mb 44f 53f
2:54 9 13 mph 1023.6mb 44f 53f
2:48 7 10 mph 1023.5mb 44f 53f
2:42 7 11 mph 1023.6mb 44f 53f
2:36 7 10 mph 1023.6mb 44f 53f
2:30 5 13 mph 1023.7mb 44f 53f
2:24 6 9 mph 1023.7mb 44f 53f
2:18 5 10 mph 1023.8mb 44f 54f
2:12 5 10 mph 1023.8mb 44f 54f
2:06 6 14 mph 1023.9mb 44f 53f
2:00 6 9 mph 1023.9mb 44f 54f
1:54 5 10 mph 1023.9mb 44f 54f
1:48 7 11 mph 1023.9mb 44f 54f
1:42 7 10 mph 1023.9mb 44f 54f
1:36 5 11 mph 1023.8mb 44f 55f
1:30 6 10 mph 1023.8mb 44f 54f
1:24 5 11 mph 1023.8mb 45f 55f
1:18 9 14 mph 1023.8mb 45f 55f
1:12 9 13 mph 1023.9mb 44f 55f
1:06 3 11 mph 1023.9mb 45f 55f
1:00 5 8 mph 1023.8mb 45f 55f
12:54 3 10 mph 1023.8mb 45f 56f
12:48 7 10 mph 1023.7mb 45f 55f
12:42 9 13 mph 1023.7mb 45f 54f
12:36 7 11 mph 1023.6mb 45f 55f
12:30 3 11 mph 1023.7mb 45f 55f
12:24 5 10 mph 1023.8mb 45f 53f
12:18 6 8 mph 1023.7mb 44f 51f
12:12 5 7 mph 1023.6mb 44f 51f
12:06 6 8 mph 1023.6mb 44f 50f
12:00 3 6 mph 1023.6mb 44f 51f
11:54 6 8 mph 1023.5mb 44f 51f
11:48 1 8 mph 1023.5mb 44f 52f
11:42 7 11 mph 1023.4mb 44f 51f
11:36 2 5 mph 1023.4mb 43f 53f
11:30 8 14 mph 1023.4mb 43f 53f
11:24 9 14 mph 1023.4mb 43f 51f
11:18 10 15 mph 1023.4mb 43f 49f
11:12 15 17 mph 1023.6mb 43f 44f
11:06 15 16 mph 1023.6mb 43f 44f
11:00 15 18 mph 1023.7mb 43f 44f
10:54 14 16 mph 1023.8mb 43f 45f
10:48 14 18 mph 1023.9mb - -
10:42 14 16 mph 1024mb - -
10:36 13 16 mph 1023.9mb - -
10:30 11 14 mph 1024mb 43f 45f
10:24 8 11 mph 1024.1mb 43f 46f
10:18 10 13 mph 1024.1mb 43f 46f
10:12 10 14 mph 1024.2mb 43f 45f
10:06 10 14 mph 1024.2mb 43f 44f
10:00 10 11 mph 1024.2mb 43f 44f
9:54 9 10 mph 1024.2mb 43f 44f
9:48 8 9 mph 1024.2mb 43f 44f
9:42 8 9 mph 1024.3mb 43f 44f
9:36 8 9 mph 1024.3mb 43f 45f
9:30 8 10 mph 1024.3mb 43f 45f
9:24 10 11 mph 1024.2mb 43f 44f
9:18 7 10 mph 1024.2mb 43f 44f
9:12 9 11 mph 1024.1mb 43f 44f
9:06 8 9 mph 1024.2mb 43f 43f
9:00 8 9 mph 1024.2mb 43f 43f
8:54 7
mph
1024.3mb 43f 43f
8:48 3 5 mph 1024.3mb 43f 43f
8:42 3
mph
1024.4mb 43f 43f
8:36 3
mph
1024.4mb 43f 43f
8:30 3 5 mph 1024.4mb 43f 43f
8:24 3
mph
1024.4mb 43f 43f
8:18 3
mph
1024.4mb 43f 43f
8:12 2
mph
1024.4mb 43f 43f
8:06 2
mph
1024.4mb 43f 43f
8:00 1 2 mph 1024.3mb 43f 44f
7:54  -  1 mph 1024.3mb 43f 44f
7:48  -  1 mph 1024.2mb 43f 43f
7:42 1 3 mph 1024.2mb 43f 42f
7:36 3
mph
1024.1mb 43f 42f
7:30 2 3 mph 1024.1mb 43f 42f
7:24 2 3 mph 1024.1mb 43f 42f
7:18 2
mph
1024.1mb 43f 43f
7:12 2 3 mph 1024mb 43f 43f
7:06 2
mph
1023.9mb 43f 44f
7:00 2
mph
1023.9mb 43f 44f
6:54  -  1 mph 1023.9mb 43f 44f
6:48  -  1 mph 1023.8mb 43f 44f
6:42  -  mph 1023.8mb 43f 43f
6:36  -  1 mph 1023.8mb 43f 44f
6:30  -  1 mph 1023.7mb 43f 44f
6:24  -  1 mph 1023.7mb 43f 44f
6:18  -  mph 1023.8mb 43f 43f
6:12  -  2 mph 1023.8mb 43f 43f
6:06  -  1 mph 1023.6mb 43f 42f
6:00  -  mph 1023.5mb 43f 41f
5:54  -  2 mph 1023.5mb 43f 41f
5:48 2
mph
1023.5mb 43f 40f
5:42 1 2 mph 1023.5mb 43f 39f
5:36  -  1 mph 1023.4mb 43f 39f
5:30  -  1 mph 1023.4mb 43f 39f
5:24  -  3 mph 1023.4mb 43f 39f
5:18  -  2 mph 1023.4mb 43f 39f
5:12 2 3 mph 1023.4mb 43f 39f
5:06 1 2 mph 1023.4mb 43f 39f
5:00 2 3 mph 1023.5mb 43f 39f
4:54 1 2 mph 1023.5mb 43f 39f
4:48  -  2 mph 1023.5mb 43f 39f
4:42  -  1 mph 1023.3mb 43f 40f
4:36  -  1 mph 1023.3mb 43f 40f
4:30 2 3 mph 1023.4mb 43f 39f
4:24 2 5 mph 1023.5mb 43f 39f
4:18 3 6 mph 1023.4mb 43f 39f
4:12 5 6 mph 1023.4mb 43f 40f
4:06 2 5 mph 1023.3mb 43f 40f
4:00 3 5 mph 1023.3mb 43f 40f
3:54 2
mph
1023.3mb 43f 40f
3:48 1 5 mph 1023.2mb 43f 40f
3:42 3 5 mph 1023mb 43f 40f
3:36 2 3 mph 1023mb 43f 40f
3:30 3 6 mph 1023.1mb 43f 40f
3:24 6
mph
1023.1mb 43f 41f
3:18 5
mph
1023.1mb 43f 41f
3:12 3 5 mph 1023.1mb 43f 42f
3:06 3 5 mph 1023.1mb 44f 42f
3:00 5 6 mph 1023.1mb 43f 42f
2:54 6
mph
1023.1mb 43f 42f
2:48 5 6 mph 1023.1mb 43f 43f
2:42 5 7 mph 1023.1mb 43f 44f
2:36 5 6 mph 1023.1mb 43f 44f
2:30 6 9 mph 1023.2mb 43f 44f
2:24 8 9 mph 1023.2mb 43f 45f
2:18 7 8 mph 1023.2mb 43f 45f
2:12 6 8 mph 1023.2mb 43f 45f
2:06 7 9 mph 1023.2mb 43f 45f
2:00 8 9 mph 1023.2mb 43f 45f
1:54 7 9 mph 1023.4mb 43f 45f
1:48  -  mph 1023.3mb 43f 44f
1:42  -  mph 1023.3mb 43f 45f
1:36  -  mph 1023.4mb 43f 45f
1:30 7 9 mph 1023.4mb 43f 45f
1:24 6 8 mph 1023.4mb 43f 45f
1:18 6 8 mph 1023.3mb 43f 45f
1:12 5 7 mph 1023.3mb 43f 45f
1:06 2 5 mph 1023.3mb 43f 45f
1:00 3 9 mph 1023.2mb 43f 45f
12:54 6 14 mph 1023.2mb 43f 45f
12:48 10 18 mph 1023.1mb 43f 46f
12:42 11 20 mph 1023mb 43f 46f
12:36 13 17 mph 1023mb 43f 46f
12:30 14 18 mph 1023mb 43f 46f
12:24 14 18 mph 1023mb 43f 46f
12:18 15 21 mph 1023mb 43f 46f
12:12 13 20 mph 1023.1mb 43f 46f
12:06 11 17 mph 1023.1mb 43f 46f
12:00 10 20 mph 1023.1mb 44f 46f
Sáb 04/30 11:54 13 17 mph 1023mb 44f 46f
11:48 9 15 mph 1023mb 44f 46f
11:42 6 11 mph 1023.1mb 44f 46f
11:36 6 9 mph 1023.2mb 44f 46f
11:30 3 11 mph 1023.2mb 44f 46f
11:24 6 11 mph 1023.1mb 44f 46f
11:18 6 10 mph 1023.2mb 44f 46f
11:12 3 7 mph 1023.3mb 44f 46f
11:06 5 8 mph 1023.2mb 44f 46f
11:00  -  mph - 44f -
10:54  -  mph - 44f -
10:48  -  mph 1023.1mb 44f -
10:42  -  mph 1023.2mb 44f -
10:36  -  mph 1023.2mb 44f -
10:30  -  mph 1023.1mb 44f -
10:24  -  mph 1023.1mb 44f -
10:18  -  mph 1023.1mb - 48f
10:12  -  mph 1023.1mb - 48f
10:06  -  mph 1023.1mb - 48f
10:00 3 7 mph 1023.1mb 44f 47f
9:54 1 5 mph 1023.1mb 44f 47f
9:48 3 7 mph 1023mb 44f -
9:42 2 3 mph 1023mb 44f -
9:36 2 7 mph 1023.1mb 44f -
9:30  -  mph 1023.1mb 44f -
9:24  -  mph 1023.2mb 44f -
9:18 3 9 mph 1023.2mb 44f -
9:12  -  5 mph 1023.2mb 44f -
9:06 1 3 mph 1023.2mb 44f -
9:00 3 7 mph 1023.1mb 44f 46f
8:54 5 11 mph 1023.1mb 44f 49f
8:48 6 11 mph 1023mb 44f -
8:42 6 9 mph 1022.9mb 44f -
8:36 7 10 mph 1022.8mb 44f -
8:30  -  mph 1022.8mb 44f 49f
8:24  -  mph 1022.7mb 44f 49f
8:18 6 9 mph 1022.6mb 44f -
8:12 6 9 mph 1022.6mb 44f -
8:06 5 8 mph 1022.5mb 44f -
8:00  -  mph 1022.5mb 44f 49f
7:54  -  mph 1022.4mb 44f 49f
7:48  -  mph 1022.4mb - -
7:42  -  mph 1022.3mb - -
7:36  -  mph 1022.2mb - -
7:00  -  mph - 45f 51f
6:54  -  mph - 45f 52f
6:48  -  mph - 45f 52f
6:42  -  mph - 44f 52f
6:36  -  mph - 45f 52f
6:30 7 10 mph 1021.7mb 45f 53f
6:24 8 10 mph 1021.8mb 44f 53f
6:18 5 8 mph 1021.8mb 44f -
6:12 5 6 mph 1021.7mb 44f -
6:06 2 3 mph 1021.5mb 44f -
6:00  -  mph 1021.4mb 44f 54f
5:54  -  mph 1021.4mb 44f 55f
5:48  -  mph 1021.2mb - -
5:42  -  mph 1021.2mb - -
5:36  -  mph 1021.1mb - -
5:30 5 7 mph 1021.1mb 44f 56f
5:24 5 7 mph 1021mb 44f 56f
5:18 5 8 mph 1020.9mb 44f 55f
5:12 3 9 mph 1020.8mb 44f 56f
5:06 6 9 mph 1020.9mb 44f 55f
5:00 7 9 mph 1021mb 44f 55f
4:54 6 10 mph 1021.1mb 44f 56f
4:48 6 10 mph 1021.1mb 44f 56f
4:42 6 8 mph 1021mb 44f 55f
4:36 5 8 mph 1021mb 44f 56f
4:30 6 9 mph 1020.9mb 44f 54f
4:24 9 13 mph 1020.8mb 44f 52f
4:18 10 14 mph 1020.8mb 44f 51f
4:12 9 14 mph 1020.8mb 44f 51f
4:06 10 14 mph 1020.9mb 44f 51f
4:00 9 14 mph 1020.8mb 44f 53f
3:54 7 15 mph 1020.7mb 44f 53f
3:48 9 14 mph 1020.6mb 44f 53f
3:42 9 14 mph 1020.7mb 44f 51f
3:36 13 16 mph 1020.7mb 44f 51f
3:30 13 15 mph 1020.7mb 44f 51f
3:24 11 16 mph 1020.8mb 44f 51f
3:18 14 16 mph 1020.9mb 44f 49f
3:12 13 16 mph 1020.9mb 44f 50f
3:06 13 16 mph 1020.9mb 44f 49f
3:00 14 16 mph 1020.9mb 44f 47f
2:54 13 16 mph 1021.1mb 44f 46f
2:48 13 17 mph 1021.1mb 44f 46f
2:42 14 17 mph 1021.1mb 44f 46f
2:36 14 18 mph 1021mb 44f 46f
2:30 15 17 mph 1021.1mb 44f 46f
2:24 14 18 mph 1021.1mb 44f 46f
2:18 14 17 mph 1021.3mb 44f 46f
2:12 16 17 mph 1021.4mb 44f 45f
2:06 13 17 mph 1021.4mb 44f 47f
2:00 14 18 mph 1021.6mb 44f 46f
1:54 14 17 mph 1021.7mb 44f 46f
1:48 14 17 mph 1021.8mb 44f 45f
1:42 14 16 mph 1021.9mb 44f 46f
1:36 13 16 mph 1022.1mb 43f 46f
1:30 13 15 mph 1022.1mb 43f 46f
1:24 13 16 mph 1022.1mb 43f 46f
1:18 14 17 mph 1022.3mb 43f 46f
1:12 13 16 mph 1022.3mb 43f 46f
1:06 14 17 mph 1022.4mb 43f 46f
1:00 11 16 mph 1022.4mb 43f 46f
12:54 13 16 mph 1022.3mb 43f 46f
12:48 13 17 mph 1022.3mb 43f 46f
12:42 14 17 mph 1022.3mb 43f 46f
12:36 13 15 mph 1022.4mb 43f 47f
12:30 13 17 mph 1022.6mb 43f 47f
12:24 13 16 mph 1022.8mb 43f 47f
12:18 13 16 mph 1022.8mb 43f 46f
12:12 13 15 mph 1022.8mb 43f 47f
12:06 10 15 mph 1022.9mb 43f 47f
12:00 10 15 mph 1023mb 43f 47f
11:54 11 14 mph 1023mb 43f 47f
11:48 11 13 mph 1023.1mb 43f 47f
11:42 9 11 mph 1023.4mb 43f 47f
11:36 9 13 mph 1023.4mb 43f 47f
11:30 9 13 mph 1023.4mb 43f 47f
11:24 11 13 mph 1023.4mb 43f 47f
11:18 10 13 mph 1023.5mb 43f 47f
11:12 9 11 mph 1023.5mb 43f 46f
11:06 8 11 mph 1023.5mb 43f 46f
11:00 8 11 mph 1023.6mb 43f 47f
10:54 8 11 mph 1023.6mb 43f 47f
10:48 9 11 mph 1023.6mb - -
10:42 8 11 mph 1023.5mb - -
10:36 8 10 mph 1023.4mb - -
10:30 6 8 mph 1023.3mb 44f 46f
10:24 5 7 mph 1023.3mb 43f 46f
10:18 2 3 mph 1023.3mb 43f 46f
10:12 3
mph
1023.2mb 43f 46f
10:06 2
mph
1023.2mb 43f 46f
10:00 1 2 mph 1023.2mb 43f 46f
9:54 2 3 mph 1023.2mb 43f 45f
9:48 2 3 mph 1023.2mb 43f 44f
9:42 3 5 mph 1023.1mb 43f 44f
9:36 3 5 mph 1023.2mb 43f 44f
9:30 3 5 mph 1023.1mb 43f 44f
9:24 3 5 mph 1023.1mb 43f 43f
9:18 3 5 mph 1023.2mb 43f 43f
9:12 3 5 mph 1023.2mb 43f 43f
9:06 3 5 mph 1023.3mb 43f 42f
9:00 3 5 mph 1023.2mb 43f 42f
8:54 3 5 mph 1023.2mb 43f 42f
8:48 5
mph
1023.1mb 42f 42f
8:42 3
mph
1023.1mb 43f 42f
8:36 1 2 mph 1023mb 42f 42f
8:30 2 3 mph 1023.1mb 42f 41f
8:24 2 3 mph 1023.1mb 42f 41f
8:18 3
mph
1023.2mb 42f 41f
8:12 2 3 mph 1023.1mb 43f 41f
8:06 3
mph
1023mb 42f 40f
8:00 3 5 mph 1022.9mb 42f 40f
7:54 3 5 mph 1022.7mb 42f 39f
7:48 5
mph
1022.6mb 42f 39f
7:42 5 6 mph 1022.6mb 42f 39f
7:36 5 6 mph 1022.5mb 42f 39f
7:30 3 5 mph 1022.4mb 42f 39f
7:24 5
mph
1022.4mb 42f 39f
7:18 3 5 mph 1022.4mb 42f 39f
7:12 3 5 mph 1022.4mb 42f 40f
7:06 3 5 mph 1022.3mb 42f 39f
7:00 3 5 mph 1022.3mb 42f 39f
6:54 3 5 mph 1022.2mb 42f 39f
6:48 5 6 mph 1022.3mb 42f 39f
6:42 3 5 mph 1022.2mb 42f 39f
6:36 2 3 mph 1022.1mb 42f 39f
6:30 2 3 mph 1022.1mb 42f 39f
6:24 2
mph
1022.1mb 42f 39f
6:18 1 2 mph 1021.9mb 42f 39f
6:12 2
mph
1021.8mb 42f 39f
6:06 1 2 mph 1021.8mb 42f 38f
6:00 2 3 mph 1021.8mb 42f 38f
5:54 3
mph
1021.8mb 42f 38f
5:48 3
mph
1021.7mb 42f 38f
5:42 2
mph
1021.6mb 42f 37f
5:36 2 3 mph 1021.6mb 42f 37f
5:30 2 3 mph 1021.6mb 42f 37f
5:24 2 3 mph 1021.6mb 42f 38f
5:18 3
mph
1021.6mb 43f 38f
5:12 3 5 mph 1021.7mb 43f 38f
5:06 2 3 mph 1021.7mb 43f 38f
5:00 2 3 mph 1021.6mb 43f 38f
4:54 3 5 mph 1021.6mb 43f 38f
4:48 5 6 mph 1021.7mb 43f 38f
4:42 6 7 mph 1021.6mb 43f 38f
4:36 6 7 mph 1021.5mb 43f 39f
4:30 7
mph
1021.6mb 43f 39f
4:24 6
mph
1021.6mb 43f 39f
4:18 5 6 mph 1021.5mb 43f 39f
4:12 5 6 mph 1021.5mb 43f 39f
4:06 3 6 mph 1021.5mb 43f 39f
4:00 5 7 mph 1021.6mb 43f 39f
3:54 5 7 mph 1021.6mb 43f 39f
3:48 5 6 mph 1021.6mb 43f 39f
3:42 3 5 mph 1021.6mb 43f 38f
3:36 5
mph
1021.6mb 43f 39f
3:30 3 6 mph 1021.5mb 43f 39f
3:24 6
mph
1021.5mb 43f 38f
3:18 5 6 mph 1021.5mb 43f 38f
3:12 5 6 mph 1021.5mb 43f 39f
3:06 5 7 mph 1021.5mb 43f 39f
3:00 5 6 mph 1021.5mb 43f 39f
2:54 5 6 mph 1021.5mb 43f 39f
2:48 2 6 mph 1021.4mb 43f 40f
2:42 2 6 mph 1021.5mb 43f 40f
2:36 5 6 mph 1021.4mb 43f 40f
2:30 5 7 mph 1021.2mb 42f 40f
2:24 6 7 mph 1021.2mb 42f 40f
2:18 6 7 mph 1021.1mb 43f 40f
2:12 6 9 mph 1021.1mb 43f 41f
2:06 7 9 mph 1021.1mb 42f 41f
2:00 7 9 mph 1021mb 43f 41f
1:54 6 7 mph 1021mb 42f 41f
1:48 5 8 mph 1020.9mb - -
1:42 5 8 mph 1020.8mb - -
1:36 7 8 mph 1020.8mb - -
1:30 5 7 mph 1020.8mb 43f 41f
1:24 5 7 mph 1020.8mb 42f 41f
1:18 6 8 mph 1020.8mb 43f 41f
1:12 5 7 mph 1020.8mb 43f 41f
1:06 6 7 mph 1020.8mb 42f 41f
1:00 5 6 mph 1020.8mb 43f 41f
12:54 2 5 mph 1020.7mb 42f 41f
12:48 1 3 mph 1020.7mb 43f 41f
12:42 2 13 mph 1020.7mb 42f 41f
12:36 6 11 mph 1020.5mb 43f 41f
12:30 6 10 mph 1020.5mb 43f 41f
12:24 6 13 mph 1020.4mb 43f 41f
12:18 6 9 mph 1020.3mb 43f 41f
12:12 6 11 mph 1020.4mb 43f 41f
12:06 6 11 mph 1020.4mb 43f 41f
12:00 7 11 mph 1020.5mb 42f 41f
Sex 04/29 11:54 7 14 mph 1020.4mb 43f 41f
11:48 6 9 mph 1020.4mb 43f 41f
11:42 2 7 mph 1020.4mb 43f 41f
11:36 1 5 mph 1020.3mb 43f 41f
11:30 2 6 mph 1020.2mb 43f 41f
11:24 2 6 mph 1020.3mb 43f 41f
11:18 3 10 mph 1020.3mb 43f 41f
11:12 8 14 mph 1020.1mb 43f 41f
11:06 8 16 mph 1020mb 43f 42f
11:00  -  mph - 43f 42f
10:54  -  mph - 43f 42f
10:48 5 7 mph 1020.1mb 43f -
10:42 3 6 mph 1020.1mb 43f -
10:36 2 5 mph 1020.1mb 43f -
10:30 3 7 mph 1020.1mb 43f -
10:24 2 8 mph 1020mb 43f -
10:18 5 9 mph 1020.1mb 43f 42f
10:12 7 10 mph 1020.1mb 43f 42f
10:06 6 11 mph 1020mb 43f 42f
10:00  -  mph 1019.9mb 43f 42f
9:54  -  mph 1020mb 43f 42f
9:48 6 10 mph 1020mb 43f -
9:42 3 9 mph 1019.9mb 43f -
9:36 6 8 mph 1019.9mb 43f -
9:30  -  mph - 43f -
9:24  -  mph - 43f -
9:18 7 11 mph 1019.8mb 43f 43f
9:12 3 8 mph 1019.6mb 43f 42f
9:06 7 9 mph 1019.6mb 43f 42f
9:00  -  mph 1019.7mb 43f 42f
8:54  -  mph 1019.7mb 43f 42f
8:48  -  mph 1019.5mb - -
8:42  -  mph 1019.6mb - -
8:36  -  mph 1019.6mb - -
8:30  -  mph 1019.6mb 43f -
8:24  -  mph 1019.7mb 43f -
8:18  -  mph 1019.7mb 43f -
8:12  -  mph 1019.8mb 43f -
8:06  -  mph 1019.7mb 43f -
8:00  -  mph 1019.7mb 43f -
7:54  -  mph 1019.7mb 43f -
7:48  -  mph 1019.6mb - -
7:42  -  mph 1019.5mb - -
7:36  -  mph 1019.5mb - -
7:30 7 18 mph 1019.5mb 43f 42f
7:24 10 20 mph 1019.5mb 44f 42f
7:18  -  mph 1019.5mb 44f 42f
7:12  -  mph 1019.4mb 43f 42f
7:06  -  mph 1019.3mb 43f 43f
7:00  -  mph - 43f 43f
6:54  -  mph - 43f 43f
6:48  -  mph 1019mb 43f -
6:42  -  mph 1019.2mb 44f -
6:36  -  mph 1019.2mb 43f -
6:30 10 20 mph 1019.3mb 43f -
6:24 9 16 mph 1019.2mb 43f -
6:18 7 16 mph 1019.2mb 44f 44f
6:12 9 16 mph 1019.3mb 43f 44f
6:06 6 15 mph 1019.3mb 44f 45f
6:00  -  mph 1019.2mb 44f 45f
5:54  -  mph 1019.2mb 44f 45f
5:48 6 13 mph 1019.2mb 44f -
5:42 9 13 mph 1019.2mb 44f -
5:36 7 15 mph 1019.2mb 45f -
5:30 7 14 mph 1019.1mb 44f 45f
5:24 7 10 mph 1019.1mb 44f 45f
5:18 3 14 mph 1019.2mb 44f 46f
5:12 7 13 mph 1019.1mb 43f 45f
5:06 8 11 mph 1019mb 43f 45f
5:00 10 14 mph 1018.9mb 43f 45f
4:54 7 13 mph 1018.9mb 44f 46f
4:48 8 11 mph 1018.9mb 44f 46f
4:42 6 14 mph 1018.9mb 44f 46f
4:36 6 15 mph 1018.8mb 44f 46f
4:30 3 11 mph 1018.9mb 44f 46f
4:24 6 14 mph 1018.9mb 44f 46f
4:18 7 14 mph 1018.9mb 44f 46f
4:12 10 16 mph 1018.9mb 44f 45f
4:06 8 17 mph 1018.9mb 44f 45f
4:00 10 17 mph 1018.9mb 44f 45f
3:54 9 16 mph 1018.9mb 44f 45f
3:48 9 14 mph 1018.9mb 44f 46f
3:42 8 14 mph 1019.1mb 44f 46f
3:36 7 16 mph 1019.1mb 44f 46f
3:30 9 16 mph 1019.1mb 44f 46f
3:24 6 15 mph 1019.2mb 44f 46f
3:18 7 11 mph 1019.3mb 44f 46f
3:12 7 14 mph 1019.4mb 44f 46f
3:06 8 14 mph 1019.4mb 44f 46f
3:00 7 14 mph 1019.5mb 44f 46f
2:54 9 15 mph 1019.5mb 44f 46f
2:48 10 17 mph 1019.6mb 44f 46f
2:42 8 16 mph 1019.7mb 44f 47f
2:36 8 15 mph 1019.8mb 44f 46f
2:30 8 15 mph 1019.8mb 44f 46f
2:24 8 16 mph 1019.9mb 44f 45f
2:18 7 17 mph 1020mb 44f 45f
2:12 9 18 mph 1020mb 44f 44f
2:06 10 20 mph 1020.1mb 44f 44f
2:00 14 20 mph 1020.2mb 44f 42f
1:54 15 21 mph 1020.2mb 44f 42f
1:48 14 22 mph 1020.3mb 44f 42f
1:42 15 21 mph 1020.4mb 44f 41f
1:36 17 21 mph 1020.5mb 44f 40f
1:30 15 21 mph 1020.7mb 44f 40f
1:24 17 23 mph 1020.7mb 44f 40f
1:18 18 22 mph 1020.9mb 44f 39f
1:12 20 22 mph 1021mb 44f 39f
1:06 17 22 mph 1021.1mb 44f 39f
1:00 14 18 mph 1021.2mb 44f 39f
12:54 11 17 mph 1021.3mb 44f 40f
12:48 11 17 mph 1021.4mb 44f 40f
12:42 13 16 mph 1021.3mb 44f 40f
12:36 9 13 mph 1021.4mb 44f 41f
12:30 8 14 mph 1021.5mb 44f 41f
12:24 9 16 mph 1021.5mb 44f 41f
12:18 10 15 mph 1021.7mb 44f 40f
12:12 10 15 mph 1021.7mb 44f 40f
12:06 14 17 mph 1021.8mb 44f 39f